sensor_id;sensor_type;location;lat;lon;timestamp;temperature;humidity
74364;DHT22;62797;49.740;10.154;2023-01-31T00:01:09;2.20;60.70
74364;DHT22;62797;49.740;10.154;2023-01-31T00:03:35;2.10;60.60
74364;DHT22;62797;49.740;10.154;2023-01-31T00:06:20;2.20;60.80
74364;DHT22;62797;49.740;10.154;2023-01-31T00:08:47;2.10;61.10
74364;DHT22;62797;49.740;10.154;2023-01-31T00:11:15;2.10;61.10
74364;DHT22;62797;49.740;10.154;2023-01-31T00:13:41;2.10;61.30
74364;DHT22;62797;49.740;10.154;2023-01-31T00:16:07;2.00;61.00
74364;DHT22;62797;49.740;10.154;2023-01-31T00:18:34;2.00;61.30
74364;DHT22;62797;49.740;10.154;2023-01-31T00:21:06;2.00;61.60
74364;DHT22;62797;49.740;10.154;2023-01-31T00:23:32;2.10;61.60
74364;DHT22;62797;49.740;10.154;2023-01-31T00:28:41;2.10;61.60
74364;DHT22;62797;49.740;10.154;2023-01-31T00:31:07;2.10;61.40
74364;DHT22;62797;49.740;10.154;2023-01-31T00:33:34;2.20;61.10
74364;DHT22;62797;49.740;10.154;2023-01-31T00:36:06;2.20;61.00
74364;DHT22;62797;49.740;10.154;2023-01-31T00:38:32;2.20;60.60
74364;DHT22;62797;49.740;10.154;2023-01-31T00:40:58;2.30;60.40
74364;DHT22;62797;49.740;10.154;2023-01-31T00:43:23;2.40;59.70
74364;DHT22;62797;49.740;10.154;2023-01-31T00:45:49;2.50;59.40
74364;DHT22;62797;49.740;10.154;2023-01-31T00:48:14;2.60;59.00
74364;DHT22;62797;49.740;10.154;2023-01-31T00:50:40;2.50;58.90
74364;DHT22;62797;49.740;10.154;2023-01-31T00:53:06;2.50;58.60
74364;DHT22;62797;49.740;10.154;2023-01-31T00:55:31;2.50;58.90
74364;DHT22;62797;49.740;10.154;2023-01-31T00:57:57;2.40;59.30
74364;DHT22;62797;49.740;10.154;2023-01-31T01:00:22;2.40;59.30
74364;DHT22;62797;49.740;10.154;2023-01-31T01:02:48;2.50;59.50
74364;DHT22;62797;49.740;10.154;2023-01-31T01:05:14;2.60;58.80
74364;DHT22;62797;49.740;10.154;2023-01-31T01:07:39;2.50;58.80
74364;DHT22;62797;49.740;10.154;2023-01-31T01:10:05;2.50;58.60
74364;DHT22;62797;49.740;10.154;2023-01-31T01:12:31;2.50;58.80
74364;DHT22;62797;49.740;10.154;2023-01-31T01:14:57;2.50;58.80
74364;DHT22;62797;49.740;10.154;2023-01-31T01:17:22;2.60;58.70
74364;DHT22;62797;49.740;10.154;2023-01-31T01:19:48;2.50;58.70
74364;DHT22;62797;49.740;10.154;2023-01-31T01:22:14;2.50;58.40
74364;DHT22;62797;49.740;10.154;2023-01-31T01:24:41;2.50;59.00
74364;DHT22;62797;49.740;10.154;2023-01-31T01:27:07;2.30;59.20
74364;DHT22;62797;49.740;10.154;2023-01-31T01:29:33;2.30;59.70
74364;DHT22;62797;49.740;10.154;2023-01-31T01:31:59;2.30;59.70
74364;DHT22;62797;49.740;10.154;2023-01-31T01:34:25;2.30;59.70
74364;DHT22;62797;49.740;10.154;2023-01-31T01:36:51;2.20;59.50
74364;DHT22;62797;49.740;10.154;2023-01-31T01:39:17;2.20;59.50
74364;DHT22;62797;49.740;10.154;2023-01-31T01:41:43;2.20;60.10
74364;DHT22;62797;49.740;10.154;2023-01-31T01:46:53;2.10;61.00
74364;DHT22;62797;49.740;10.154;2023-01-31T01:49:35;2.10;61.60
74364;DHT22;62797;49.740;10.154;2023-01-31T01:52:05;2.10;61.60
74364;DHT22;62797;49.740;10.154;2023-01-31T01:54:40;2.00;61.60
74364;DHT22;62797;49.740;10.154;2023-01-31T01:57:10;2.00;61.90
74364;DHT22;62797;49.740;10.154;2023-01-31T01:59:41;2.00;61.80
74364;DHT22;62797;49.740;10.154;2023-01-31T02:02:08;2.00;62.50
74364;DHT22;62797;49.740;10.154;2023-01-31T02:04:36;1.90;62.50
74364;DHT22;62797;49.740;10.154;2023-01-31T02:07:04;1.90;62.80
74364;DHT22;62797;49.740;10.154;2023-01-31T02:10:06;1.90;62.70
74364;DHT22;62797;49.740;10.154;2023-01-31T02:12:34;1.90;63.10
74364;DHT22;62797;49.740;10.154;2023-01-31T02:15:01;1.80;63.70
74364;DHT22;62797;49.740;10.154;2023-01-31T02:17:26;1.80;63.40
74364;DHT22;62797;49.740;10.154;2023-01-31T02:22:30;1.90;63.70
74364;DHT22;62797;49.740;10.154;2023-01-31T02:35:41;1.90;62.70
74364;DHT22;62797;49.740;10.154;2023-01-31T02:41:14;1.80;63.40
74364;DHT22;62797;49.740;10.154;2023-01-31T02:44:10;1.80;63.00
74364;DHT22;62797;49.740;10.154;2023-01-31T02:52:51;1.70;63.00
74364;DHT22;62797;49.740;10.154;2023-01-31T02:55:25;1.70;62.80
74364;DHT22;62797;49.740;10.154;2023-01-31T02:58:13;1.70;63.20
74364;DHT22;62797;49.740;10.154;2023-01-31T03:00:41;1.70;63.30
74364;DHT22;62797;49.740;10.154;2023-01-31T03:03:21;1.70;63.30
74364;DHT22;62797;49.740;10.154;2023-01-31T03:11:24;1.60;63.80
74364;DHT22;62797;49.740;10.154;2023-01-31T03:14:02;1.60;63.40
74364;DHT22;62797;49.740;10.154;2023-01-31T03:16:44;1.60;63.30
74364;DHT22;62797;49.740;10.154;2023-01-31T03:19:57;1.60;63.30
74364;DHT22;62797;49.740;10.154;2023-01-31T03:22:28;1.60;63.60
74364;DHT22;62797;49.740;10.154;2023-01-31T03:24:55;1.50;63.60
74364;DHT22;62797;49.740;10.154;2023-01-31T03:27:22;1.50;64.80
74364;DHT22;62797;49.740;10.154;2023-01-31T03:29:49;1.50;64.70
74364;DHT22;62797;49.740;10.154;2023-01-31T03:32:22;1.50;64.40
74364;DHT22;62797;49.740;10.154;2023-01-31T03:34:49;1.60;64.70
74364;DHT22;62797;49.740;10.154;2023-01-31T03:37:19;1.50;64.80
74364;DHT22;62797;49.740;10.154;2023-01-31T03:39:54;1.50;65.30
74364;DHT22;62797;49.740;10.154;2023-01-31T03:44:52;1.60;65.20
74364;DHT22;62797;49.740;10.154;2023-01-31T03:47:36;1.60;64.60
74364;DHT22;62797;49.740;10.154;2023-01-31T03:50:08;1.80;64.40
74364;DHT22;62797;49.740;10.154;2023-01-31T03:52:40;1.80;63.80
74364;DHT22;62797;49.740;10.154;2023-01-31T03:55:31;1.70;63.90
74364;DHT22;62797;49.740;10.154;2023-01-31T03:57:59;1.70;64.50
74364;DHT22;62797;49.740;10.154;2023-01-31T04:00:26;1.70;64.90
74364;DHT22;62797;49.740;10.154;2023-01-31T04:02:57;1.70;65.10
74364;DHT22;62797;49.740;10.154;2023-01-31T04:05:26;1.80;64.50
74364;DHT22;62797;49.740;10.154;2023-01-31T04:07:56;1.80;64.40
74364;DHT22;62797;49.740;10.154;2023-01-31T04:10:22;1.80;64.40
74364;DHT22;62797;49.740;10.154;2023-01-31T04:12:47;1.80;64.40
74364;DHT22;62797;49.740;10.154;2023-01-31T04:15:13;1.90;64.60
74364;DHT22;62797;49.740;10.154;2023-01-31T04:17:39;1.90;64.10
74364;DHT22;62797;49.740;10.154;2023-01-31T04:20:05;1.90;63.80
74364;DHT22;62797;49.740;10.154;2023-01-31T04:22:31;1.90;63.90
74364;DHT22;62797;49.740;10.154;2023-01-31T04:24:56;2.00;63.60
74364;DHT22;62797;49.740;10.154;2023-01-31T04:27:22;2.00;63.80
74364;DHT22;62797;49.740;10.154;2023-01-31T04:29:48;2.00;63.10
74364;DHT22;62797;49.740;10.154;2023-01-31T04:32:13;2.00;63.10
74364;DHT22;62797;49.740;10.154;2023-01-31T04:34:39;2.00;62.80
74364;DHT22;62797;49.740;10.154;2023-01-31T04:37:04;2.00;63.20
74364;DHT22;62797;49.740;10.154;2023-01-31T04:39:30;2.00;62.90
74364;DHT22;62797;49.740;10.154;2023-01-31T04:41:56;1.90;63.40
74364;DHT22;62797;49.740;10.154;2023-01-31T04:44:21;1.90;62.90
74364;DHT22;62797;49.740;10.154;2023-01-31T04:46:47;1.80;62.80
74364;DHT22;62797;49.740;10.154;2023-01-31T04:49:13;1.70;62.60
74364;DHT22;62797;49.740;10.154;2023-01-31T04:51:38;1.60;62.40
74364;DHT22;62797;49.740;10.154;2023-01-31T04:54:04;1.60;62.70
74364;DHT22;62797;49.740;10.154;2023-01-31T04:56:29;1.40;62.90
74364;DHT22;62797;49.740;10.154;2023-01-31T04:58:56;1.30;63.20
74364;DHT22;62797;49.740;10.154;2023-01-31T05:01:22;1.20;63.30
74364;DHT22;62797;49.740;10.154;2023-01-31T05:03:47;1.10;63.90
74364;DHT22;62797;49.740;10.154;2023-01-31T05:06:13;0.90;64.40
74364;DHT22;62797;49.740;10.154;2023-01-31T05:08:38;0.90;64.60
74364;DHT22;62797;49.740;10.154;2023-01-31T05:11:05;0.90;65.10
74364;DHT22;62797;49.740;10.154;2023-01-31T05:13:32;0.80;64.90
74364;DHT22;62797;49.740;10.154;2023-01-31T05:15:57;0.80;65.80
74364;DHT22;62797;49.740;10.154;2023-01-31T05:18:24;0.70;66.00
74364;DHT22;62797;49.740;10.154;2023-01-31T05:20:50;0.70;65.40
74364;DHT22;62797;49.740;10.154;2023-01-31T05:23:16;0.60;65.40
74364;DHT22;62797;49.740;10.154;2023-01-31T05:25:43;0.60;66.50
74364;DHT22;62797;49.740;10.154;2023-01-31T05:28:10;0.60;66.60
74364;DHT22;62797;49.740;10.154;2023-01-31T05:30:36;0.50;66.90
74364;DHT22;62797;49.740;10.154;2023-01-31T05:33:02;0.40;67.70
74364;DHT22;62797;49.740;10.154;2023-01-31T05:35:27;0.40;67.80
74364;DHT22;62797;49.740;10.154;2023-01-31T05:37:54;0.40;67.80
74364;DHT22;62797;49.740;10.154;2023-01-31T05:40:19;0.40;68.60
74364;DHT22;62797;49.740;10.154;2023-01-31T05:42:52;0.40;68.40
74364;DHT22;62797;49.740;10.154;2023-01-31T05:45:18;0.40;68.30
74364;DHT22;62797;49.740;10.154;2023-01-31T05:47:45;0.40;69.00
74364;DHT22;62797;49.740;10.154;2023-01-31T05:50:11;0.50;69.20
74364;DHT22;62797;49.740;10.154;2023-01-31T05:52:36;0.60;68.20
74364;DHT22;62797;49.740;10.154;2023-01-31T05:55:02;0.60;68.10
74364;DHT22;62797;49.740;10.154;2023-01-31T05:57:27;0.60;68.10
74364;DHT22;62797;49.740;10.154;2023-01-31T05:59:53;0.60;68.10
74364;DHT22;62797;49.740;10.154;2023-01-31T06:02:19;0.60;68.70
74364;DHT22;62797;49.740;10.154;2023-01-31T06:04:44;0.60;68.40
74364;DHT22;62797;49.740;10.154;2023-01-31T06:07:10;0.60;68.70
74364;DHT22;62797;49.740;10.154;2023-01-31T06:09:35;0.50;68.40
74364;DHT22;62797;49.740;10.154;2023-01-31T06:12:03;0.50;68.50
74364;DHT22;62797;49.740;10.154;2023-01-31T06:14:29;0.60;68.80
74364;DHT22;62797;49.740;10.154;2023-01-31T06:16:54;0.60;69.00
74364;DHT22;62797;49.740;10.154;2023-01-31T06:19:20;0.70;69.60
74364;DHT22;62797;49.740;10.154;2023-01-31T06:21:52;0.80;69.80
74364;DHT22;62797;49.740;10.154;2023-01-31T06:24:18;0.90;69.70
74364;DHT22;62797;49.740;10.154;2023-01-31T06:26:43;1.00;69.30
74364;DHT22;62797;49.740;10.154;2023-01-31T06:29:09;1.00;68.90
74364;DHT22;62797;49.740;10.154;2023-01-31T06:31:34;1.10;68.60
74364;DHT22;62797;49.740;10.154;2023-01-31T06:34:00;1.10;68.50
74364;DHT22;62797;49.740;10.154;2023-01-31T06:36:25;1.10;68.30
74364;DHT22;62797;49.740;10.154;2023-01-31T06:38:51;1.10;68.10
74364;DHT22;62797;49.740;10.154;2023-01-31T06:41:18;1.00;67.60
74364;DHT22;62797;49.740;10.154;2023-01-31T06:43:44;1.10;67.60
74364;DHT22;62797;49.740;10.154;2023-01-31T06:46:10;1.10;67.50
74364;DHT22;62797;49.740;10.154;2023-01-31T06:48:35;1.00;67.50
74364;DHT22;62797;49.740;10.154;2023-01-31T06:51:01;1.00;67.60
74364;DHT22;62797;49.740;10.154;2023-01-31T06:53:27;1.00;67.80
74364;DHT22;62797;49.740;10.154;2023-01-31T06:55:52;0.90;68.10
74364;DHT22;62797;49.740;10.154;2023-01-31T06:58:18;1.00;68.80
74364;DHT22;62797;49.740;10.154;2023-01-31T07:00:43;0.90;68.30
74364;DHT22;62797;49.740;10.154;2023-01-31T07:03:09;0.90;68.50
74364;DHT22;62797;49.740;10.154;2023-01-31T07:05:34;0.90;68.40
74364;DHT22;62797;49.740;10.154;2023-01-31T07:08:00;0.90;68.40
74364;DHT22;62797;49.740;10.154;2023-01-31T07:10:25;0.90;68.20
74364;DHT22;62797;49.740;10.154;2023-01-31T07:12:51;1.00;68.50
74364;DHT22;62797;49.740;10.154;2023-01-31T07:15:17;1.00;68.30
74364;DHT22;62797;49.740;10.154;2023-01-31T07:17:42;1.10;67.90
74364;DHT22;62797;49.740;10.154;2023-01-31T07:20:09;1.00;67.90
74364;DHT22;62797;49.740;10.154;2023-01-31T07:22:34;1.10;68.00
74364;DHT22;62797;49.740;10.154;2023-01-31T07:25:00;1.10;68.10
74364;DHT22;62797;49.740;10.154;2023-01-31T07:27:26;1.00;68.20
74364;DHT22;62797;49.740;10.154;2023-01-31T07:29:52;1.10;67.90
74364;DHT22;62797;49.740;10.154;2023-01-31T07:32:17;1.10;67.80
74364;DHT22;62797;49.740;10.154;2023-01-31T07:34:43;1.20;67.60
74364;DHT22;62797;49.740;10.154;2023-01-31T07:37:09;1.30;66.40
74364;DHT22;62797;49.740;10.154;2023-01-31T07:39:34;1.40;65.30
74364;DHT22;62797;49.740;10.154;2023-01-31T07:42:00;1.40;65.30
74364;DHT22;62797;49.740;10.154;2023-01-31T07:44:25;1.50;64.00
74364;DHT22;62797;49.740;10.154;2023-01-31T07:46:51;1.50;64.60
74364;DHT22;62797;49.740;10.154;2023-01-31T07:49:19;1.40;64.40
74364;DHT22;62797;49.740;10.154;2023-01-31T07:51:44;1.40;64.40
74364;DHT22;62797;49.740;10.154;2023-01-31T07:54:11;1.40;64.20
74364;DHT22;62797;49.740;10.154;2023-01-31T07:56:36;1.40;64.60
74364;DHT22;62797;49.740;10.154;2023-01-31T07:59:02;1.40;64.10
74364;DHT22;62797;49.740;10.154;2023-01-31T08:01:28;1.50;64.30
74364;DHT22;62797;49.740;10.154;2023-01-31T08:04:14;1.60;63.50
74364;DHT22;62797;49.740;10.154;2023-01-31T08:06:42;1.70;63.90
74364;DHT22;62797;49.740;10.154;2023-01-31T08:09:08;1.70;63.00
74364;DHT22;62797;49.740;10.154;2023-01-31T08:11:34;1.90;62.50
74364;DHT22;62797;49.740;10.154;2023-01-31T08:14:00;1.90;62.40
74364;DHT22;62797;49.740;10.154;2023-01-31T08:16:26;1.90;61.60
74364;DHT22;62797;49.740;10.154;2023-01-31T08:18:52;2.00;61.30
74364;DHT22;62797;49.740;10.154;2023-01-31T08:21:18;2.00;61.10
74364;DHT22;62797;49.740;10.154;2023-01-31T08:23:44;2.00;61.00
74364;DHT22;62797;49.740;10.154;2023-01-31T08:26:13;1.90;60.60
74364;DHT22;62797;49.740;10.154;2023-01-31T08:28:39;2.00;61.70
74364;DHT22;62797;49.740;10.154;2023-01-31T08:31:05;2.00;61.30
74364;DHT22;62797;49.740;10.154;2023-01-31T08:33:31;2.20;60.20
74364;DHT22;62797;49.740;10.154;2023-01-31T08:36:06;2.20;61.00
74364;DHT22;62797;49.740;10.154;2023-01-31T08:38:32;2.10;60.80
74364;DHT22;62797;49.740;10.154;2023-01-31T08:40:58;2.10;61.30
74364;DHT22;62797;49.740;10.154;2023-01-31T08:43:23;2.20;60.40
74364;DHT22;62797;49.740;10.154;2023-01-31T08:45:49;2.20;60.60
74364;DHT22;62797;49.740;10.154;2023-01-31T08:48:14;2.30;60.60
74364;DHT22;62797;49.740;10.154;2023-01-31T08:50:40;2.30;60.00
74364;DHT22;62797;49.740;10.154;2023-01-31T08:53:05;2.30;60.50
74364;DHT22;62797;49.740;10.154;2023-01-31T08:55:34;2.40;59.60
74364;DHT22;62797;49.740;10.154;2023-01-31T08:57:59;2.40;59.40
74364;DHT22;62797;49.740;10.154;2023-01-31T09:00:26;2.50;59.40
74364;DHT22;62797;49.740;10.154;2023-01-31T09:02:53;2.40;59.20
74364;DHT22;62797;49.740;10.154;2023-01-31T09:05:19;2.50;59.00
74364;DHT22;62797;49.740;10.154;2023-01-31T09:07:45;2.50;58.30
74364;DHT22;62797;49.740;10.154;2023-01-31T09:10:10;2.50;58.50
74364;DHT22;62797;49.740;10.154;2023-01-31T09:12:36;2.40;59.10
74364;DHT22;62797;49.740;10.154;2023-01-31T09:15:03;2.50;59.00
74364;DHT22;62797;49.740;10.154;2023-01-31T09:17:29;2.50;59.60
74364;DHT22;62797;49.740;10.154;2023-01-31T09:19:55;2.50;59.20
74364;DHT22;62797;49.740;10.154;2023-01-31T09:22:21;2.50;59.30
74364;DHT22;62797;49.740;10.154;2023-01-31T09:24:47;2.60;58.80
74364;DHT22;62797;49.740;10.154;2023-01-31T09:27:12;2.70;58.50
74364;DHT22;62797;49.740;10.154;2023-01-31T09:29:38;2.60;58.50
74364;DHT22;62797;49.740;10.154;2023-01-31T09:32:04;2.60;58.90
74364;DHT22;62797;49.740;10.154;2023-01-31T09:34:29;2.60;58.60
74364;DHT22;62797;49.740;10.154;2023-01-31T09:36:56;2.70;58.60
74364;DHT22;62797;49.740;10.154;2023-01-31T09:39:23;2.80;58.00
74364;DHT22;62797;49.740;10.154;2023-01-31T09:41:59;2.90;58.10
74364;DHT22;62797;49.740;10.154;2023-01-31T09:44:31;3.00;58.10
74364;DHT22;62797;49.740;10.154;2023-01-31T09:49:59;3.10;56.60
74364;DHT22;62797;49.740;10.154;2023-01-31T09:52:25;3.20;56.00
74364;DHT22;62797;49.740;10.154;2023-01-31T09:54:52;3.20;56.20
74364;DHT22;62797;49.740;10.154;2023-01-31T09:57:25;3.10;55.90
74364;DHT22;62797;49.740;10.154;2023-01-31T10:00:04;3.20;55.30
74364;DHT22;62797;49.740;10.154;2023-01-31T10:05:42;3.30;55.20
74364;DHT22;62797;49.740;10.154;2023-01-31T10:08:26;3.30;54.50
74364;DHT22;62797;49.740;10.154;2023-01-31T10:11:02;3.40;54.50
74364;DHT22;62797;49.740;10.154;2023-01-31T10:13:52;3.30;54.50
74364;DHT22;62797;49.740;10.154;2023-01-31T10:18:58;3.20;55.30
74364;DHT22;62797;49.740;10.154;2023-01-31T10:21:31;3.40;52.70
74364;DHT22;62797;49.740;10.154;2023-01-31T10:24:00;3.30;54.30
74364;DHT22;62797;49.740;10.154;2023-01-31T10:26:29;3.30;54.70
74364;DHT22;62797;49.740;10.154;2023-01-31T10:29:03;3.20;54.80
74364;DHT22;62797;49.740;10.154;2023-01-31T10:31:55;3.20;54.80
74364;DHT22;62797;49.740;10.154;2023-01-31T10:34:29;3.10;54.70
74364;DHT22;62797;49.740;10.154;2023-01-31T10:37:00;3.20;54.70
74364;DHT22;62797;49.740;10.154;2023-01-31T10:39:46;3.40;54.60
74364;DHT22;62797;49.740;10.154;2023-01-31T10:42:37;3.20;54.00
74364;DHT22;62797;49.740;10.154;2023-01-31T10:45:21;3.50;55.50
74364;DHT22;62797;49.740;10.154;2023-01-31T10:47:52;3.90;53.30
74364;DHT22;62797;49.740;10.154;2023-01-31T10:53:12;4.10;51.40
74364;DHT22;62797;49.740;10.154;2023-01-31T10:56:03;4.20;50.70
74364;DHT22;62797;49.740;10.154;2023-01-31T10:58:30;4.10;50.40
74364;DHT22;62797;49.740;10.154;2023-01-31T11:00:57;4.20;50.10
74364;DHT22;62797;49.740;10.154;2023-01-31T11:03:22;4.10;50.30
74364;DHT22;62797;49.740;10.154;2023-01-31T11:05:55;3.80;51.70
74364;DHT22;62797;49.740;10.154;2023-01-31T11:11:16;3.90;51.90
74364;DHT22;62797;49.740;10.154;2023-01-31T11:14:02;3.70;51.80
74364;DHT22;62797;49.740;10.154;2023-01-31T11:16:34;3.60;52.70
74364;DHT22;62797;49.740;10.154;2023-01-31T11:19:03;3.70;52.50
74364;DHT22;62797;49.740;10.154;2023-01-31T11:21:35;3.70;52.10
74364;DHT22;62797;49.740;10.154;2023-01-31T11:24:15;3.60;53.20
74364;DHT22;62797;49.740;10.154;2023-01-31T11:26:51;3.60;53.50
74364;DHT22;62797;49.740;10.154;2023-01-31T11:29:39;3.50;53.60
74364;DHT22;62797;49.740;10.154;2023-01-31T11:32:21;3.60;52.40
74364;DHT22;62797;49.740;10.154;2023-01-31T11:34:55;3.40;53.40
74364;DHT22;62797;49.740;10.154;2023-01-31T11:37:21;3.50;52.70
74364;DHT22;62797;49.740;10.154;2023-01-31T11:42:19;3.50;52.70
74364;DHT22;62797;49.740;10.154;2023-01-31T11:47:41;3.50;52.60
74364;DHT22;62797;49.740;10.154;2023-01-31T11:50:31;3.50;53.00
74364;DHT22;62797;49.740;10.154;2023-01-31T11:52:59;3.50;53.50
74364;DHT22;62797;49.740;10.154;2023-01-31T11:55:27;3.60;53.10
74364;DHT22;62797;49.740;10.154;2023-01-31T11:58:00;3.60;52.50
74364;DHT22;62797;49.740;10.154;2023-01-31T12:00:30;3.60;52.60
74364;DHT22;62797;49.740;10.154;2023-01-31T12:03:05;3.50;52.70
74364;DHT22;62797;49.740;10.154;2023-01-31T12:05:37;3.50;52.70
74364;DHT22;62797;49.740;10.154;2023-01-31T12:08:03;3.60;52.90
74364;DHT22;62797;49.740;10.154;2023-01-31T12:10:33;3.60;52.00
74364;DHT22;62797;49.740;10.154;2023-01-31T12:13:16;3.60;52.00
74364;DHT22;62797;49.740;10.154;2023-01-31T12:18:11;3.50;53.60
74364;DHT22;62797;49.740;10.154;2023-01-31T12:20:43;3.50;53.60
74364;DHT22;62797;49.740;10.154;2023-01-31T12:23:29;3.50;53.60
74364;DHT22;62797;49.740;10.154;2023-01-31T12:26:14;3.50;53.70
74364;DHT22;62797;49.740;10.154;2023-01-31T12:28:50;3.50;53.70
74364;DHT22;62797;49.740;10.154;2023-01-31T12:31:39;3.50;53.90
74364;DHT22;62797;49.740;10.154;2023-01-31T12:34:21;3.60;53.40
74364;DHT22;62797;49.740;10.154;2023-01-31T12:43:09;3.40;54.50
74364;DHT22;62797;49.740;10.154;2023-01-31T12:45:52;3.40;55.10
74364;DHT22;62797;49.740;10.154;2023-01-31T12:56:58;3.40;54.50
74364;DHT22;62797;49.740;10.154;2023-01-31T12:59:38;3.50;54.50
74364;DHT22;62797;49.740;10.154;2023-01-31T13:04:48;3.50;54.60
74364;DHT22;62797;49.740;10.154;2023-01-31T13:07:27;3.60;53.80
74364;DHT22;62797;49.740;10.154;2023-01-31T13:09:56;3.60;53.90
74364;DHT22;62797;49.740;10.154;2023-01-31T13:12:27;3.60;53.70
74364;DHT22;62797;49.740;10.154;2023-01-31T13:15:25;3.70;53.80
74364;DHT22;62797;49.740;10.154;2023-01-31T13:17:56;3.70;53.70
74364;DHT22;62797;49.740;10.154;2023-01-31T13:20:58;3.70;53.30
74364;DHT22;62797;49.740;10.154;2023-01-31T13:23:46;3.70;54.20
74364;DHT22;62797;49.740;10.154;2023-01-31T13:26:31;3.80;53.00
74364;DHT22;62797;49.740;10.154;2023-01-31T13:29:23;3.80;53.20
74364;DHT22;62797;49.740;10.154;2023-01-31T13:32:03;3.80;52.70
74364;DHT22;62797;49.740;10.154;2023-01-31T13:34:51;3.80;53.20
74364;DHT22;62797;49.740;10.154;2023-01-31T13:37:17;3.80;53.10
74364;DHT22;62797;49.740;10.154;2023-01-31T13:42:26;3.90;51.90
74364;DHT22;62797;49.740;10.154;2023-01-31T13:45:00;4.00;51.70
74364;DHT22;62797;49.740;10.154;2023-01-31T13:50:41;3.90;52.50
74364;DHT22;62797;49.740;10.154;2023-01-31T13:53:25;4.00;51.60
74364;DHT22;62797;49.740;10.154;2023-01-31T13:55:52;4.00;52.10
74364;DHT22;62797;49.740;10.154;2023-01-31T13:58:22;3.90;52.30
74364;DHT22;62797;49.740;10.154;2023-01-31T14:00:55;4.00;52.80
74364;DHT22;62797;49.740;10.154;2023-01-31T14:03:24;4.00;52.50
74364;DHT22;62797;49.740;10.154;2023-01-31T14:05:51;4.10;52.20
74364;DHT22;62797;49.740;10.154;2023-01-31T14:14:09;4.10;52.30
74364;DHT22;62797;49.740;10.154;2023-01-31T14:16:43;4.10;52.40
74364;DHT22;62797;49.740;10.154;2023-01-31T14:22:13;4.20;52.20
74364;DHT22;62797;49.740;10.154;2023-01-31T14:27:17;4.20;52.10
74364;DHT22;62797;49.740;10.154;2023-01-31T14:29:46;4.20;51.60
74364;DHT22;62797;49.740;10.154;2023-01-31T14:32:22;4.30;51.60
74364;DHT22;62797;49.740;10.154;2023-01-31T14:34:50;4.20;51.20
74364;DHT22;62797;49.740;10.154;2023-01-31T14:37:38;4.20;52.00
74364;DHT22;62797;49.740;10.154;2023-01-31T14:43:33;4.40;49.70
74364;DHT22;62797;49.740;10.154;2023-01-31T14:57:16;4.20;50.50
74364;DHT22;62797;49.740;10.154;2023-01-31T15:05:15;4.20;50.40
74364;DHT22;62797;49.740;10.154;2023-01-31T15:11:03;4.30;50.20
74364;DHT22;62797;49.740;10.154;2023-01-31T15:13:49;4.20;50.90
74364;DHT22;62797;49.740;10.154;2023-01-31T15:16:28;4.10;51.60
74364;DHT22;62797;49.740;10.154;2023-01-31T15:19:17;4.30;51.10
74364;DHT22;62797;49.740;10.154;2023-01-31T15:21:51;4.20;51.00
74364;DHT22;62797;49.740;10.154;2023-01-31T15:24:26;4.20;50.80
74364;DHT22;62797;49.740;10.154;2023-01-31T15:26:54;4.10;51.90
74364;DHT22;62797;49.740;10.154;2023-01-31T15:29:37;4.10;52.50
74364;DHT22;62797;49.740;10.154;2023-01-31T15:32:17;4.10;52.30
74364;DHT22;62797;49.740;10.154;2023-01-31T15:35:00;4.20;52.60
74364;DHT22;62797;49.740;10.154;2023-01-31T15:37:30;4.10;52.80
74364;DHT22;62797;49.740;10.154;2023-01-31T15:40:16;4.00;52.10
74364;DHT22;62797;49.740;10.154;2023-01-31T15:42:42;4.10;52.20
74364;DHT22;62797;49.740;10.154;2023-01-31T15:45:21;4.00;52.70
74364;DHT22;62797;49.740;10.154;2023-01-31T15:48:00;4.00;52.60
74364;DHT22;62797;49.740;10.154;2023-01-31T15:50:28;4.00;52.70
74364;DHT22;62797;49.740;10.154;2023-01-31T15:52:55;4.00;53.00
74364;DHT22;62797;49.740;10.154;2023-01-31T15:55:21;4.00;52.90
74364;DHT22;62797;49.740;10.154;2023-01-31T15:57:55;4.00;53.20
74364;DHT22;62797;49.740;10.154;2023-01-31T16:00:34;3.90;54.30
74364;DHT22;62797;49.740;10.154;2023-01-31T16:03:00;3.90;54.80
74364;DHT22;62797;49.740;10.154;2023-01-31T16:05:29;4.00;53.90
74364;DHT22;62797;49.740;10.154;2023-01-31T16:07:57;3.90;55.00
74364;DHT22;62797;49.740;10.154;2023-01-31T16:10:24;3.90;55.40
74364;DHT22;62797;49.740;10.154;2023-01-31T16:12:51;3.70;56.40
74364;DHT22;62797;49.740;10.154;2023-01-31T16:15:31;3.70;56.60
74364;DHT22;62797;49.740;10.154;2023-01-31T16:18:00;3.80;56.40
74364;DHT22;62797;49.740;10.154;2023-01-31T16:20:49;3.80;56.20
74364;DHT22;62797;49.740;10.154;2023-01-31T16:26:05;3.70;57.10
74364;DHT22;62797;49.740;10.154;2023-01-31T16:28:37;3.80;56.50
74364;DHT22;62797;49.740;10.154;2023-01-31T16:31:06;3.80;56.60
74364;DHT22;62797;49.740;10.154;2023-01-31T16:33:32;3.80;56.50
74364;DHT22;62797;49.740;10.154;2023-01-31T16:36:09;3.80;56.70
74364;DHT22;62797;49.740;10.154;2023-01-31T16:38:38;3.80;57.40
74364;DHT22;62797;49.740;10.154;2023-01-31T16:41:04;3.80;57.70
74364;DHT22;62797;49.740;10.154;2023-01-31T16:43:34;3.70;58.40
74364;DHT22;62797;49.740;10.154;2023-01-31T16:46:18;3.60;59.20
74364;DHT22;62797;49.740;10.154;2023-01-31T16:49:00;3.80;58.00
74364;DHT22;62797;49.740;10.154;2023-01-31T16:51:38;3.80;58.20
74364;DHT22;62797;49.740;10.154;2023-01-31T16:56:39;3.70;60.90
74364;DHT22;62797;49.740;10.154;2023-01-31T17:02:21;3.70;59.40
74364;DHT22;62797;49.740;10.154;2023-01-31T17:04:50;3.70;60.10
74364;DHT22;62797;49.740;10.154;2023-01-31T17:07:29;3.50;61.90
74364;DHT22;62797;49.740;10.154;2023-01-31T17:09:58;3.60;61.50
74364;DHT22;62797;49.740;10.154;2023-01-31T17:12:30;3.60;61.70
74364;DHT22;62797;49.740;10.154;2023-01-31T17:14:57;3.60;61.40
74364;DHT22;62797;49.740;10.154;2023-01-31T17:17:31;3.70;61.00
74364;DHT22;62797;49.740;10.154;2023-01-31T17:19:58;3.70;61.60
74364;DHT22;62797;49.740;10.154;2023-01-31T17:22:24;3.60;61.50
74364;DHT22;62797;49.740;10.154;2023-01-31T17:24:50;3.70;61.70
74364;DHT22;62797;49.740;10.154;2023-01-31T17:27:16;3.60;61.80
74364;DHT22;62797;49.740;10.154;2023-01-31T17:29:43;3.60;61.90
74364;DHT22;62797;49.740;10.154;2023-01-31T17:32:13;3.60;62.30
74364;DHT22;62797;49.740;10.154;2023-01-31T17:34:38;3.60;62.20
74364;DHT22;62797;49.740;10.154;2023-01-31T17:37:05;3.70;61.80
74364;DHT22;62797;49.740;10.154;2023-01-31T17:39:30;3.70;61.60
74364;DHT22;62797;49.740;10.154;2023-01-31T17:41:56;3.80;61.30
74364;DHT22;62797;49.740;10.154;2023-01-31T17:44:21;3.90;61.30
74364;DHT22;62797;49.740;10.154;2023-01-31T17:46:47;3.70;62.50
74364;DHT22;62797;49.740;10.154;2023-01-31T17:49:12;3.70;62.70
74364;DHT22;62797;49.740;10.154;2023-01-31T17:51:38;3.80;62.50
74364;DHT22;62797;49.740;10.154;2023-01-31T17:54:04;3.70;64.20